createdAt,value
2018-12-13T00:00:18.324Z,1.70
2018-12-13T00:01:23.024Z,1.80
2018-12-13T00:02:27.595Z,1.90
2018-12-13T00:03:31.912Z,1.90
2018-12-13T00:04:36.524Z,1.70
2018-12-13T00:05:41.025Z,2.03
2018-12-13T00:06:45.501Z,1.70
2018-12-13T00:07:49.797Z,1.80
2018-12-13T00:08:54.254Z,2.00
2018-12-13T00:09:58.745Z,1.63
2018-12-13T00:11:03.854Z,1.70
2018-12-13T00:12:08.090Z,1.63
2018-12-13T00:13:12.674Z,1.90
2018-12-13T00:14:16.695Z,1.50
2018-12-13T00:15:24.887Z,1.87
2018-12-13T00:16:28.896Z,1.90
2018-12-13T00:17:32.987Z,1.90
2018-12-13T00:18:37.185Z,2.03
2018-12-13T00:19:41.134Z,2.13
2018-12-13T00:20:45.044Z,1.77
2018-12-13T00:21:48.892Z,1.93
2018-12-13T00:22:52.826Z,1.70
2018-12-13T00:23:56.770Z,1.80
2018-12-13T00:25:00.697Z,1.80
2018-12-13T00:26:04.589Z,1.60
2018-12-13T00:27:08.523Z,1.93
2018-12-13T00:28:12.517Z,2.00
2018-12-13T00:29:16.416Z,1.73
2018-12-13T00:30:20.391Z,1.60
2018-12-13T00:31:24.443Z,1.90
2018-12-13T00:32:28.390Z,2.00
2018-12-13T00:33:32.381Z,1.67
2018-12-13T00:34:36.289Z,1.80
2018-12-13T00:35:40.304Z,1.73
2018-12-13T00:36:44.288Z,1.80
2018-12-13T00:37:48.239Z,1.67
2018-12-13T00:38:52.645Z,2.00
2018-12-13T00:39:56.552Z,1.80
2018-12-13T00:41:00.510Z,1.77
2018-12-13T00:42:04.490Z,1.93
2018-12-13T00:43:08.634Z,1.80
2018-12-13T00:44:12.692Z,2.00
2018-12-13T00:45:17.343Z,1.70
2018-12-13T00:46:21.269Z,1.57
2018-12-13T00:47:25.222Z,1.40
2018-12-13T00:48:29.151Z,1.80
2018-12-13T00:49:33.089Z,1.80
2018-12-13T00:50:37.016Z,1.93
2018-12-13T00:51:41.036Z,1.67
2018-12-13T00:52:44.952Z,1.73
2018-12-13T00:53:48.942Z,1.60
2018-12-13T00:54:52.947Z,1.90
2018-12-13T00:55:56.815Z,1.80
2018-12-13T00:57:00.734Z,1.80
2018-12-13T00:58:05.057Z,1.80
2018-12-13T00:59:09.071Z,1.93
2018-12-13T01:00:13.110Z,1.40
2018-12-13T01:01:17.450Z,1.53
2018-12-13T01:02:21.430Z,1.70
2018-12-13T01:03:25.366Z,1.73
2018-12-13T01:04:29.304Z,1.70
2018-12-13T01:05:33.315Z,1.70
2018-12-13T01:06:37.656Z,1.53
2018-12-13T01:07:41.652Z,1.90
2018-12-13T01:08:46.026Z,1.60
2018-12-13T01:09:50.141Z,1.70
2018-12-13T01:10:54.481Z,1.53
2018-12-13T01:11:58.468Z,1.77
2018-12-13T01:13:02.628Z,1.70
2018-12-13T01:14:06.641Z,1.67
2018-12-13T01:15:10.856Z,1.83
2018-12-13T01:16:20.329Z,1.80
2018-12-13T01:17:24.979Z,1.60
2018-12-13T01:18:29.328Z,1.70
2018-12-13T01:19:33.936Z,1.70
2018-12-13T01:20:38.432Z,1.50
2018-12-13T01:21:49.395Z,1.83
2018-12-13T01:22:53.636Z,1.70
2018-12-13T01:23:57.565Z,1.70
2018-12-13T01:25:02.277Z,1.70
2018-12-13T01:26:06.688Z,1.73
2018-12-13T01:27:10.911Z,1.50
2018-12-13T01:28:15.184Z,1.40
2018-12-13T01:29:19.489Z,1.70
2018-12-13T01:30:23.537Z,1.40
2018-12-13T01:31:27.498Z,1.83
2018-12-13T01:32:31.441Z,1.63
2018-12-13T01:33:35.367Z,1.70
2018-12-13T01:34:39.267Z,1.50
2018-12-13T01:35:43.203Z,1.60
2018-12-13T01:36:52.388Z,1.70
2018-12-13T01:37:51.188Z,1.40
2018-12-13T01:38:55.134Z,1.50
2018-12-13T01:39:59.157Z,1.30
2018-12-13T01:41:03.068Z,1.63
2018-12-13T01:42:06.937Z,1.40
2018-12-13T01:43:10.983Z,1.50
2018-12-13T01:44:14.862Z,1.50
2018-12-13T01:45:18.952Z,1.57
2018-12-13T01:46:22.921Z,1.50
2018-12-13T01:47:26.844Z,2.00
2018-12-13T01:48:30.942Z,1.60
2018-12-13T01:49:34.883Z,1.53
2018-12-13T01:50:38.855Z,1.63
2018-12-13T01:51:42.727Z,1.70
2018-12-13T01:52:46.643Z,1.70
2018-12-13T01:53:50.654Z,1.70
2018-12-13T01:54:54.554Z,1.43
2018-12-13T01:55:58.461Z,1.67
2018-12-13T01:57:02.367Z,1.33
2018-12-13T01:58:06.301Z,1.47
2018-12-13T01:59:10.341Z,1.57
2018-12-13T02:00:14.593Z,1.50
2018-12-13T02:01:18.945Z,1.50
2018-12-13T02:02:23.101Z,1.40
2018-12-13T02:03:27.283Z,1.73
2018-12-13T02:04:31.677Z,1.53
2018-12-13T02:05:35.903Z,1.60
2018-12-13T02:06:40.139Z,1.70
2018-12-13T02:07:44.485Z,1.43
2018-12-13T02:08:48.739Z,1.60
2018-12-13T02:09:53.173Z,1.60
2018-12-13T02:10:57.457Z,1.43
2018-12-13T02:12:01.713Z,1.50
2018-12-13T02:13:05.880Z,1.60
2018-12-13T02:14:10.119Z,1.67
2018-12-13T02:15:14.542Z,1.50
2018-12-13T02:16:18.705Z,1.50
2018-12-13T02:17:23.035Z,1.60
2018-12-13T02:18:27.327Z,1.70
2018-12-13T02:19:31.659Z,1.80
2018-12-13T02:20:35.862Z,1.50
2018-12-13T02:21:40.151Z,1.47
2018-12-13T02:22:44.378Z,1.67
2018-12-13T02:23:48.662Z,1.37
2018-12-13T02:24:53.073Z,1.70
2018-12-13T02:25:57.303Z,1.57
2018-12-13T02:27:01.694Z,1.40
2018-12-13T02:28:06.103Z,1.50
2018-12-13T02:29:10.410Z,1.53
2018-12-13T02:30:14.606Z,1.60
2018-12-13T02:31:18.897Z,1.70
2018-12-13T02:32:23.100Z,1.90
2018-12-13T02:33:27.379Z,1.60
2018-12-13T02:34:31.774Z,1.70
2018-12-13T02:35:36.156Z,1.53
2018-12-13T02:36:40.675Z,1.70
2018-12-13T02:37:44.970Z,1.70
2018-12-13T02:38:49.283Z,1.70
2018-12-13T02:39:53.559Z,1.60
2018-12-13T02:40:57.840Z,1.50
2018-12-13T02:42:02.112Z,1.77
2018-12-13T02:43:06.292Z,1.60
2018-12-13T02:44:10.582Z,1.60
2018-12-13T02:45:14.823Z,1.60
2018-12-13T02:46:19.165Z,1.90
2018-12-13T02:47:23.587Z,1.63
2018-12-13T02:48:27.728Z,1.80
2018-12-13T02:49:32.182Z,1.60
2018-12-13T02:50:36.437Z,1.60
2018-12-13T02:51:40.740Z,1.53
2018-12-13T02:52:45.099Z,1.73
2018-12-13T02:53:49.407Z,2.10
2018-12-13T02:54:53.591Z,1.90
2018-12-13T02:55:57.878Z,1.60
2018-12-13T02:57:01.755Z,1.90
2018-12-13T02:58:06.199Z,1.60
2018-12-13T02:59:10.406Z,1.70
2018-12-13T03:00:14.742Z,1.73
2018-12-13T03:01:18.918Z,2.00
2018-12-13T03:02:23.256Z,1.70
2018-12-13T03:03:27.572Z,1.83
2018-12-13T03:04:31.895Z,1.63
2018-12-13T03:05:36.189Z,1.73
2018-12-13T03:06:40.473Z,1.73
2018-12-13T03:07:44.474Z,1.70
2018-12-13T03:08:48.372Z,1.77
2018-12-13T03:09:52.704Z,1.90
2018-12-13T03:10:56.985Z,1.83
2018-12-13T03:12:00.927Z,1.80
2018-12-13T03:13:05.099Z,1.63
2018-12-13T03:14:09.149Z,1.73
2018-12-13T03:15:13.111Z,1.53
2018-12-13T03:16:17.032Z,1.70
2018-12-13T03:17:20.986Z,1.50
2018-12-13T03:18:24.915Z,1.53
2018-12-13T03:19:28.855Z,1.37
2018-12-13T03:20:32.772Z,1.40
2018-12-13T03:21:36.756Z,1.97
2018-12-13T03:22:40.719Z,1.70
2018-12-13T03:23:44.709Z,1.40
2018-12-13T03:24:48.642Z,1.60
2018-12-13T03:25:52.590Z,1.30
2018-12-13T03:26:56.501Z,1.47
2018-12-13T03:28:00.450Z,1.43
2018-12-13T03:29:04.436Z,1.50
2018-12-13T03:30:08.515Z,1.50
2018-12-13T03:31:12.440Z,1.67
2018-12-13T03:32:16.427Z,1.90
2018-12-13T03:33:20.301Z,1.57
2018-12-13T03:34:24.234Z,1.93
2018-12-13T03:35:28.196Z,1.63
2018-12-13T03:36:32.113Z,1.33
2018-12-13T03:37:36.052Z,1.70
2018-12-13T03:38:42.756Z,1.80
2018-12-13T03:39:46.689Z,1.57
2018-12-13T03:40:50.611Z,1.40
2018-12-13T03:41:54.509Z,1.73
2018-12-13T03:42:58.426Z,1.40
2018-12-13T03:44:02.402Z,1.60
2018-12-13T03:45:06.388Z,1.60
2018-12-13T03:46:10.360Z,1.60
2018-12-13T03:47:14.295Z,1.70
2018-12-13T03:48:18.264Z,1.43
2018-12-13T03:49:22.209Z,1.40
2018-12-13T03:50:26.109Z,1.50
2018-12-13T03:51:30.018Z,1.73
2018-12-13T03:52:33.904Z,1.80
2018-12-13T03:53:38.063Z,1.50
2018-12-13T03:54:42.006Z,1.50
2018-12-13T03:55:45.929Z,1.40
2018-12-13T03:56:49.878Z,1.50
2018-12-13T03:57:53.812Z,1.60
2018-12-13T03:58:57.730Z,1.50
2018-12-13T04:00:07.881Z,1.60
2018-12-13T04:01:11.812Z,1.60
2018-12-13T04:02:15.875Z,1.40
2018-12-13T04:03:19.796Z,1.37
2018-12-13T04:04:23.737Z,1.60
2018-12-13T04:05:27.645Z,1.60
2018-12-13T04:06:31.553Z,1.80
2018-12-13T04:07:36.450Z,1.70
2018-12-13T04:08:40.393Z,1.80
2018-12-13T04:09:44.302Z,1.67
2018-12-13T04:10:48.235Z,1.60
2018-12-13T04:11:52.168Z,1.87
2018-12-13T04:12:56.202Z,1.90
2018-12-13T04:14:00.162Z,1.87
2018-12-13T04:15:04.223Z,2.03
2018-12-13T04:16:08.163Z,1.80
2018-12-13T04:17:12.104Z,1.80
2018-12-13T04:18:16.046Z,1.90
2018-12-13T04:19:19.979Z,2.00
2018-12-13T04:20:23.913Z,2.00
2018-12-13T04:21:27.775Z,2.00
2018-12-13T04:22:31.737Z,2.20
2018-12-13T04:23:35.678Z,2.27
2018-12-13T04:24:39.683Z,2.13
2018-12-13T04:25:43.642Z,2.47
2018-12-13T04:26:47.519Z,2.17
2018-12-13T04:27:51.527Z,1.83
2018-12-13T04:28:55.438Z,1.90
2018-12-13T04:29:59.350Z,2.37
2018-12-13T04:31:03.279Z,2.23
2018-12-13T04:32:07.181Z,2.37
2018-12-13T04:33:11.176Z,2.17
2018-12-13T04:34:15.044Z,2.10
2018-12-13T04:35:18.947Z,2.00
2018-12-13T04:36:22.864Z,2.23
2018-12-13T04:37:26.798Z,2.13
2018-12-13T04:38:30.847Z,2.20
2018-12-13T04:39:34.796Z,2.20
2018-12-13T04:40:38.736Z,2.00
2018-12-13T04:41:42.708Z,2.27
2018-12-13T04:42:46.602Z,2.20
2018-12-13T04:43:50.569Z,2.00
2018-12-13T04:44:54.499Z,2.20
2018-12-13T04:45:58.420Z,2.00
2018-12-13T04:47:02.329Z,2.50
2018-12-13T04:48:06.289Z,2.13
2018-12-13T04:49:10.241Z,2.30
2018-12-13T04:50:14.139Z,2.30
2018-12-13T04:51:18.075Z,2.07
2018-12-13T04:52:22.032Z,2.07
2018-12-13T04:53:25.972Z,2.47
2018-12-13T04:54:29.933Z,2.20
2018-12-13T04:55:33.811Z,2.33
2018-12-13T04:56:37.737Z,2.30
2018-12-13T04:57:41.681Z,2.17
2018-12-13T04:58:45.609Z,2.40
2018-12-13T04:59:49.820Z,2.40
2018-12-13T05:00:53.740Z,2.33
2018-12-13T05:01:57.679Z,2.23
2018-12-13T05:03:01.582Z,2.27
2018-12-13T05:04:05.545Z,2.30
2018-12-13T05:05:09.467Z,2.27
2018-12-13T05:06:13.388Z,2.17
2018-12-13T05:07:17.355Z,2.57
2018-12-13T05:08:21.230Z,2.30
2018-12-13T05:09:25.102Z,2.20
2018-12-13T05:10:39.972Z,2.40
2018-12-13T05:11:43.961Z,2.40
2018-12-13T05:12:48.009Z,2.50
2018-12-13T05:13:51.887Z,2.30
2018-12-13T05:14:55.761Z,3.10
2018-12-13T05:15:59.692Z,2.60
2018-12-13T05:17:03.652Z,2.77
2018-12-13T05:18:07.613Z,2.50
2018-12-13T05:19:11.606Z,2.70
2018-12-13T05:20:15.549Z,2.40
2018-12-13T05:21:19.505Z,2.57
2018-12-13T05:22:23.418Z,2.60
2018-12-13T05:23:27.404Z,2.43
2018-12-13T05:24:31.311Z,2.33
2018-12-13T05:25:35.266Z,2.50
2018-12-13T05:26:39.250Z,2.40
2018-12-13T05:27:43.211Z,2.47
2018-12-13T05:28:47.539Z,2.37
2018-12-13T05:29:51.777Z,2.30
2018-12-13T05:30:55.963Z,2.40
2018-12-13T05:32:00.237Z,2.40
2018-12-13T05:33:04.618Z,2.30
2018-12-13T05:34:08.776Z,2.53
2018-12-13T05:35:13.142Z,2.30
2018-12-13T05:36:17.496Z,2.50
2018-12-13T05:37:21.776Z,2.30
2018-12-13T05:38:26.167Z,2.70
2018-12-13T05:39:30.452Z,2.40
2018-12-13T05:40:34.730Z,2.53
2018-12-13T05:41:39.056Z,2.13
2018-12-13T05:42:43.393Z,2.57
2018-12-13T05:43:51.648Z,2.50
2018-12-13T05:44:56.176Z,2.37
2018-12-13T05:46:00.499Z,2.43
2018-12-13T05:47:04.700Z,2.30
2018-12-13T05:48:09.080Z,2.63
2018-12-13T05:49:13.538Z,2.47
2018-12-13T05:50:17.639Z,2.37
2018-12-13T05:51:22.046Z,2.30
2018-12-13T05:52:26.574Z,2.57
2018-12-13T05:53:30.786Z,2.47
2018-12-13T05:54:35.059Z,2.30
2018-12-13T05:55:39.347Z,2.43
2018-12-13T05:56:43.673Z,2.40
2018-12-13T05:57:47.832Z,2.30
2018-12-13T05:58:52.364Z,2.70
2018-12-13T05:59:56.717Z,2.30
2018-12-13T06:01:00.901Z,2.40
2018-12-13T06:02:05.146Z,2.60
2018-12-13T06:03:09.493Z,2.60
2018-12-13T06:04:13.912Z,2.47
2018-12-13T06:05:18.156Z,2.20
2018-12-13T06:06:22.573Z,2.13
2018-12-13T06:07:26.834Z,2.40
2018-12-13T06:08:31.120Z,2.20
2018-12-13T06:09:35.528Z,2.47
2018-12-13T06:10:39.743Z,2.47
2018-12-13T06:11:44.127Z,2.30
2018-12-13T06:12:48.392Z,2.40
2018-12-13T06:13:52.554Z,2.40
2018-12-13T06:14:56.863Z,2.40
2018-12-13T06:16:01.157Z,2.40
2018-12-13T06:17:05.551Z,2.60
2018-12-13T06:18:09.901Z,2.70
2018-12-13T06:19:14.133Z,2.30
2018-12-13T06:20:18.562Z,2.50
2018-12-13T06:21:22.771Z,2.50
2018-12-13T06:22:27.067Z,2.10
2018-12-13T06:23:31.404Z,2.23
2018-12-13T06:24:35.698Z,2.10
2018-12-13T06:25:39.915Z,2.40
2018-12-13T06:26:44.172Z,2.47
2018-12-13T06:27:48.304Z,2.20
2018-12-13T06:28:52.532Z,1.80
2018-12-13T06:29:59.022Z,1.90
2018-12-13T06:31:01.288Z,1.87
2018-12-13T06:32:05.668Z,1.60
2018-12-13T06:33:09.916Z,1.83
2018-12-13T06:34:14.237Z,2.20
2018-12-13T06:35:18.580Z,1.90
2018-12-13T06:36:22.815Z,2.00
2018-12-13T06:37:27.067Z,1.80
2018-12-13T06:38:31.413Z,1.90
2018-12-13T06:39:35.736Z,2.40
2018-12-13T06:40:40.134Z,2.40
2018-12-13T06:41:44.547Z,2.30
2018-12-13T06:42:48.707Z,2.20
2018-12-13T06:43:52.934Z,2.40
2018-12-13T06:44:57.493Z,1.90
2018-12-13T06:46:01.736Z,2.30
2018-12-13T06:47:06.426Z,2.10
2018-12-13T06:48:10.722Z,2.50
2018-12-13T06:49:15.073Z,2.10
2018-12-13T06:50:19.662Z,2.10
2018-12-13T06:51:23.972Z,1.90
2018-12-13T06:52:28.440Z,2.30
2018-12-13T06:53:32.727Z,2.10
2018-12-13T06:54:37.049Z,2.03
2018-12-13T06:55:41.331Z,2.20
2018-12-13T06:56:45.664Z,1.97
2018-12-13T06:57:50.058Z,2.10
2018-12-13T06:58:54.359Z,2.33
2018-12-13T06:59:58.671Z,2.10
2018-12-13T07:01:02.915Z,2.00
2018-12-13T07:02:07.340Z,2.00
2018-12-13T07:03:11.818Z,1.97
2018-12-13T07:04:15.967Z,1.73
2018-12-13T07:05:20.310Z,2.00
2018-12-13T07:06:24.611Z,1.80
2018-12-13T07:07:28.963Z,1.83
2018-12-13T07:08:33.387Z,1.83
2018-12-13T07:09:37.744Z,2.00
2018-12-13T07:10:42.118Z,1.77
2018-12-13T07:11:46.480Z,1.77
2018-12-13T07:12:51.139Z,1.87
2018-12-13T07:13:55.568Z,2.40
2018-12-13T07:14:59.869Z,1.80
2018-12-13T07:16:04.161Z,2.30
2018-12-13T07:17:08.578Z,2.20
2018-12-13T07:18:12.997Z,2.17
2018-12-13T07:19:17.417Z,2.00
2018-12-13T07:20:21.757Z,2.10
2018-12-13T07:21:26.120Z,2.20
2018-12-13T07:22:30.555Z,2.00
2018-12-13T07:23:34.804Z,2.00
2018-12-13T07:24:39.200Z,1.83
2018-12-13T07:25:43.559Z,2.30
2018-12-13T07:26:47.850Z,1.80
2018-12-13T07:27:52.119Z,2.07
2018-12-13T07:28:56.621Z,1.90
2018-12-13T07:30:01.009Z,2.00
2018-12-13T07:31:05.204Z,1.80
2018-12-13T07:32:09.574Z,1.80
2018-12-13T07:33:13.792Z,2.00
2018-12-13T07:34:18.204Z,1.90
2018-12-13T07:35:22.672Z,1.77
2018-12-13T07:36:27.015Z,1.70
2018-12-13T07:37:31.312Z,1.90
2018-12-13T07:38:35.646Z,2.00
2018-12-13T07:39:40.005Z,1.90
2018-12-13T07:40:44.381Z,1.77
2018-12-13T07:41:48.724Z,1.87
2018-12-13T07:42:53.165Z,1.90
2018-12-13T07:43:57.381Z,1.60
2018-12-13T07:45:02.057Z,1.83
2018-12-13T07:46:05.623Z,1.70
2018-12-13T07:47:09.606Z,1.77
2018-12-13T07:48:13.589Z,1.97
2018-12-13T07:49:17.528Z,1.90
2018-12-13T07:50:21.807Z,2.10
2018-12-13T07:51:26.027Z,1.93
2018-12-13T07:52:30.391Z,1.83
2018-12-13T07:53:34.330Z,2.13
2018-12-13T07:54:38.324Z,1.83
2018-12-13T07:55:42.259Z,1.93
2018-12-13T07:56:46.241Z,1.93
2018-12-13T07:57:50.222Z,1.97
2018-12-13T07:58:54.201Z,2.27
2018-12-13T07:59:58.192Z,2.07
2018-12-13T08:01:02.144Z,2.50
2018-12-13T08:02:06.146Z,2.17
2018-12-13T08:03:10.093Z,2.43
2018-12-13T08:04:14.100Z,2.40
2018-12-13T08:05:18.063Z,2.10
2018-12-13T08:06:22.069Z,2.10
2018-12-13T08:07:26.390Z,2.17
2018-12-13T08:08:30.756Z,1.87
2018-12-13T08:09:35.070Z,2.57
2018-12-13T08:10:39.411Z,3.10
2018-12-13T08:11:43.435Z,2.70
2018-12-13T08:12:47.375Z,3.00
2018-12-13T08:13:51.309Z,3.60
2018-12-13T08:14:55.251Z,3.07
2018-12-13T08:15:59.231Z,3.83
2018-12-13T08:17:03.291Z,3.30
2018-12-13T08:18:07.303Z,3.77
2018-12-13T08:19:11.247Z,3.60
2018-12-13T08:20:15.188Z,3.40
2018-12-13T08:21:19.148Z,3.20
2018-12-13T08:22:23.085Z,3.43
2018-12-13T08:23:27.029Z,3.60
2018-12-13T08:24:30.979Z,4.60
2018-12-13T08:25:34.993Z,4.40
2018-12-13T08:26:38.954Z,4.47
2018-12-13T08:27:42.903Z,4.80
2018-12-13T08:28:46.957Z,4.80
2018-12-13T08:29:50.895Z,4.33
2018-12-13T08:30:54.851Z,3.87
2018-12-13T08:31:58.885Z,4.03
2018-12-13T08:33:02.813Z,4.00
2018-12-13T08:34:06.837Z,4.67
2018-12-13T08:35:10.734Z,4.30
2018-12-13T08:36:14.655Z,4.80
2018-12-13T08:37:18.604Z,4.30
2018-12-13T08:38:27.277Z,4.90
2018-12-13T08:39:26.625Z,4.70
2018-12-13T08:40:30.700Z,5.07
2018-12-13T08:41:34.630Z,4.57
2018-12-13T08:42:38.565Z,4.77
2018-12-13T08:43:42.655Z,4.90
2018-12-13T08:44:46.620Z,4.80
2018-12-13T08:45:50.728Z,5.47
2018-12-13T08:46:54.651Z,5.20
2018-12-13T08:47:58.612Z,4.57
2018-12-13T08:49:02.518Z,4.60
2018-12-13T08:50:06.629Z,4.80
2018-12-13T08:51:10.617Z,4.57
2018-12-13T08:52:14.561Z,4.47
2018-12-13T08:53:18.625Z,4.40
2018-12-13T08:54:22.565Z,4.43
2018-12-13T08:55:26.492Z,4.50
2018-12-13T08:56:30.441Z,4.33
2018-12-13T08:57:34.398Z,4.40
2018-12-13T08:58:38.357Z,4.40
2018-12-13T08:59:42.460Z,4.80
2018-12-13T09:00:46.411Z,4.50
2018-12-13T09:01:50.323Z,4.30
2018-12-13T09:02:54.284Z,4.37
2018-12-13T09:03:58.236Z,4.07
2018-12-13T09:05:02.155Z,4.60
2018-12-13T09:06:06.083Z,4.60
2018-12-13T09:07:09.983Z,4.40
2018-12-13T09:08:13.915Z,3.93
2018-12-13T09:09:17.853Z,4.20
2018-12-13T09:10:22.153Z,4.30
2018-12-13T09:11:26.496Z,4.60
2018-12-13T09:12:30.766Z,4.40
2018-12-13T09:13:35.196Z,6.13
2018-12-13T09:14:39.478Z,6.10
2018-12-13T09:15:43.847Z,4.77
2018-12-13T09:16:48.169Z,4.97
2018-12-13T09:17:52.397Z,5.30
2018-12-13T09:18:56.712Z,5.57
2018-12-13T09:20:01.017Z,5.63
2018-12-13T09:21:05.364Z,5.20
2018-12-13T09:22:09.738Z,4.93
2018-12-13T09:23:14.120Z,4.80
2018-12-13T09:24:18.731Z,4.60
2018-12-13T09:25:23.793Z,4.50
2018-12-13T09:26:28.008Z,4.60
2018-12-13T09:27:32.281Z,4.13
2018-12-13T09:28:36.600Z,4.57
2018-12-13T09:29:40.852Z,4.73
2018-12-13T09:30:45.323Z,4.43
2018-12-13T09:31:49.670Z,4.60
2018-12-13T09:32:53.995Z,3.90
2018-12-13T09:33:58.073Z,4.10
2018-12-13T09:35:02.496Z,4.33
2018-12-13T09:36:06.684Z,3.93
2018-12-13T09:37:10.962Z,3.90
2018-12-13T09:38:15.440Z,4.50
2018-12-13T09:39:19.828Z,3.90
2018-12-13T09:40:30.307Z,4.03
2018-12-13T09:41:34.574Z,4.37
2018-12-13T09:42:38.757Z,4.20
2018-12-13T09:43:43.009Z,3.90
2018-12-13T09:44:47.205Z,4.00
2018-12-13T09:45:51.496Z,4.00
2018-12-13T09:46:55.873Z,3.83
2018-12-13T09:48:00.173Z,3.87
2018-12-13T09:49:04.572Z,4.20
2018-12-13T09:50:08.892Z,3.67
2018-12-13T09:51:13.137Z,3.70
2018-12-13T09:52:17.440Z,3.87
2018-12-13T09:53:21.777Z,3.60
2018-12-13T09:54:26.195Z,3.43
2018-12-13T09:55:30.583Z,3.80
2018-12-13T09:56:34.862Z,3.57
2018-12-13T09:57:39.243Z,3.90
2018-12-13T09:58:43.500Z,4.00
2018-12-13T09:59:47.934Z,3.63
2018-12-13T10:00:52.191Z,3.93
2018-12-13T10:01:56.521Z,3.63
2018-12-13T10:03:00.818Z,3.60
2018-12-13T10:04:05.566Z,3.80
2018-12-13T10:05:10.015Z,3.73
2018-12-13T10:06:14.539Z,3.70
2018-12-13T10:07:18.830Z,3.30
2018-12-13T10:08:23.096Z,3.10
2018-12-13T10:09:27.311Z,3.27
2018-12-13T10:10:31.606Z,3.50
2018-12-13T10:11:36.004Z,3.57
2018-12-13T10:12:40.195Z,3.60
2018-12-13T10:13:44.531Z,3.50
2018-12-13T10:14:48.656Z,3.30
2018-12-13T10:15:52.883Z,3.50
2018-12-13T10:16:57.099Z,3.50
2018-12-13T10:18:01.454Z,3.30
2018-12-13T10:19:05.760Z,3.50
2018-12-13T10:20:10.098Z,3.30
2018-12-13T10:21:14.497Z,3.40
2018-12-13T10:22:18.816Z,3.50
2018-12-13T10:23:23.066Z,3.90
2018-12-13T10:24:27.441Z,3.40
2018-12-13T10:25:31.887Z,3.60
2018-12-13T10:26:36.283Z,3.40
2018-12-13T10:27:40.640Z,3.30
2018-12-13T10:28:44.839Z,3.40
2018-12-13T10:29:49.114Z,3.57
2018-12-13T10:30:53.337Z,3.60
2018-12-13T10:31:57.725Z,3.43
2018-12-13T10:33:02.048Z,3.50
2018-12-13T10:34:06.369Z,3.67
2018-12-13T10:35:11.473Z,3.70
2018-12-13T10:36:15.116Z,3.53
2018-12-13T10:37:19.425Z,3.73
2018-12-13T10:38:23.868Z,3.40
2018-12-13T10:39:28.102Z,4.10
2018-12-13T10:40:32.440Z,3.50
2018-12-13T10:41:36.739Z,4.00
2018-12-13T10:42:41.114Z,3.67
2018-12-13T10:43:45.522Z,3.47
2018-12-13T10:44:49.737Z,3.40
2018-12-13T10:45:54.331Z,3.67
2018-12-13T10:46:58.763Z,3.57
2018-12-13T10:48:03.053Z,3.57
2018-12-13T10:49:07.427Z,3.80
2018-12-13T10:50:11.711Z,3.60
2018-12-13T10:51:16.043Z,3.83
2018-12-13T10:52:20.267Z,3.47
2018-12-13T10:53:24.850Z,3.63
2018-12-13T10:54:29.176Z,3.63
2018-12-13T10:55:33.486Z,3.60
2018-12-13T10:56:37.762Z,3.57
2018-12-13T10:57:42.101Z,3.90
2018-12-13T10:58:46.430Z,3.50
2018-12-13T10:59:50.815Z,3.70
2018-12-13T11:01:00.079Z,3.90
2018-12-13T11:02:07.647Z,3.83
2018-12-13T11:03:23.418Z,3.70
2018-12-13T11:04:27.799Z,3.57
2018-12-13T11:05:32.141Z,3.50
2018-12-13T11:06:36.530Z,3.80
2018-12-13T11:07:40.864Z,3.80
2018-12-13T11:08:45.197Z,3.70
2018-12-13T11:09:49.556Z,3.50
2018-12-13T11:10:53.878Z,3.33
2018-12-13T11:11:58.087Z,3.73
2018-12-13T11:13:02.481Z,3.70
2018-12-13T11:14:06.792Z,3.73
2018-12-13T11:15:11.089Z,3.30
2018-12-13T11:16:15.409Z,3.60
2018-12-13T11:17:19.757Z,3.97
2018-12-13T11:18:24.101Z,3.70
2018-12-13T11:19:28.661Z,3.83
2018-12-13T11:20:33.174Z,3.80
2018-12-13T11:21:37.520Z,3.57
2018-12-13T11:22:41.772Z,3.90
2018-12-13T11:23:46.214Z,4.00
2018-12-13T11:24:50.616Z,4.00
2018-12-13T11:25:55.039Z,4.10
2018-12-13T11:28:11.535Z,3.80
2018-12-13T11:30:24.993Z,3.40
2018-12-13T11:31:28.922Z,3.70
2018-12-13T11:32:33.250Z,4.30
2018-12-13T11:33:37.533Z,3.90
2018-12-13T11:34:41.831Z,4.20
2018-12-13T11:35:46.214Z,4.23
2018-12-13T11:36:50.448Z,4.60
2018-12-13T11:37:54.819Z,4.20
2018-12-13T11:38:59.100Z,3.80
2018-12-13T11:40:03.536Z,4.27
2018-12-13T11:41:07.859Z,4.50
2018-12-13T11:42:12.244Z,4.30
2018-12-13T11:43:16.684Z,4.57
2018-12-13T11:44:21.056Z,4.80
2018-12-13T11:45:25.679Z,4.10
2018-12-13T11:46:30.104Z,4.40
2018-12-13T11:47:34.510Z,4.03
2018-12-13T11:48:39.230Z,3.90
2018-12-13T11:49:43.600Z,3.90
2018-12-13T11:50:47.808Z,4.20
2018-12-13T11:51:52.054Z,4.10
2018-12-13T11:52:56.383Z,4.00
2018-12-13T11:54:00.875Z,3.60
2018-12-13T11:55:44.896Z,3.97
2018-12-13T11:56:48.914Z,3.60
2018-12-13T11:57:53.175Z,3.60
2018-12-13T11:58:57.391Z,3.70
2018-12-13T12:00:01.671Z,3.90
2018-12-13T12:01:06.072Z,4.10
2018-12-13T12:02:10.510Z,3.77
2018-12-13T12:03:14.915Z,3.90
2018-12-13T12:04:19.279Z,3.60
2018-12-13T12:05:23.671Z,4.00
2018-12-13T12:06:28.145Z,3.93
2018-12-13T12:07:32.498Z,3.50
2018-12-13T12:08:36.939Z,3.77
2018-12-13T12:09:41.307Z,3.83
2018-12-13T12:10:45.653Z,3.03
2018-12-13T12:11:50.117Z,3.47
2018-12-13T12:12:54.612Z,3.50
2018-12-13T12:13:58.802Z,3.70
2018-12-13T12:15:03.357Z,3.13
2018-12-13T12:16:07.677Z,3.70
2018-12-13T12:17:12.165Z,3.20
2018-12-13T12:18:16.499Z,3.50
2018-12-13T12:19:20.931Z,3.30
2018-12-13T12:20:25.325Z,3.80
2018-12-13T12:21:29.608Z,3.67
2018-12-13T12:22:34.030Z,3.50
2018-12-13T12:23:38.461Z,3.60
2018-12-13T12:24:42.848Z,3.47
2018-12-13T12:25:47.164Z,3.30
2018-12-13T12:26:51.530Z,3.00
2018-12-13T12:27:55.896Z,3.40
2018-12-13T12:29:00.327Z,3.60
2018-12-13T12:30:04.828Z,3.60
2018-12-13T12:31:09.214Z,3.53
2018-12-13T12:32:13.638Z,3.20
2018-12-13T12:33:17.914Z,3.47
2018-12-13T12:34:22.280Z,3.23
2018-12-13T12:35:26.611Z,3.00
2018-12-13T12:36:32.072Z,2.97
2018-12-13T12:37:35.346Z,3.23
2018-12-13T12:38:39.761Z,3.10
2018-12-13T12:39:44.121Z,3.50
2018-12-13T12:40:48.598Z,3.17
2018-12-13T12:41:52.905Z,2.90
2018-12-13T12:42:57.203Z,3.40
2018-12-13T12:44:01.491Z,3.33
2018-12-13T12:45:06.835Z,3.00
2018-12-13T12:46:11.033Z,3.13
2018-12-13T12:47:15.258Z,3.07
2018-12-13T12:48:19.718Z,3.53
2018-12-13T12:49:25.326Z,2.70
2018-12-13T12:50:28.606Z,2.80
2018-12-13T12:51:33.140Z,3.40
2018-12-13T12:52:37.421Z,2.90
2018-12-13T12:53:41.688Z,2.90
2018-12-13T12:54:45.903Z,2.77
2018-12-13T12:55:49.869Z,2.90
2018-12-13T12:56:53.827Z,2.90
2018-12-13T12:57:57.751Z,2.70
2018-12-13T12:59:01.661Z,2.93
2018-12-13T13:00:06.432Z,2.97
2018-12-13T13:01:10.524Z,2.87
2018-12-13T13:02:14.573Z,3.17
2018-12-13T13:03:18.597Z,2.73
2018-12-13T13:04:23.100Z,2.40
2018-12-13T13:05:27.451Z,2.83
2018-12-13T13:06:31.851Z,2.97
2018-12-13T13:07:36.277Z,2.77
2018-12-13T13:08:41.255Z,3.00
2018-12-13T13:09:45.726Z,2.80
2018-12-13T13:10:50.379Z,2.57
2018-12-13T13:11:56.144Z,2.90
2018-12-13T13:13:01.468Z,2.87
2018-12-13T13:14:05.799Z,3.33
2018-12-13T13:15:10.276Z,2.80
2018-12-13T13:16:15.614Z,2.80
2018-12-13T13:17:20.026Z,2.73
2018-12-13T13:18:24.387Z,2.63
2018-12-13T13:19:28.873Z,2.90
2018-12-13T13:20:33.037Z,3.13
2018-12-13T13:21:41.070Z,2.90
2018-12-13T13:22:45.715Z,2.43
2018-12-13T13:23:49.874Z,2.80
2018-12-13T13:24:54.989Z,3.00
2018-12-13T13:26:00.802Z,3.03
2018-12-13T13:28:36.523Z,3.10
2018-12-13T13:29:42.634Z,2.50
2018-12-13T13:30:50.978Z,2.60
2018-12-13T13:31:56.177Z,2.80
2018-12-13T13:33:00.587Z,2.67
2018-12-13T13:34:05.103Z,3.00
2018-12-13T13:35:09.740Z,3.53
2018-12-13T13:36:14.426Z,4.30
2018-12-13T13:37:19.001Z,3.23
2018-12-13T13:38:23.512Z,2.40
2018-12-13T13:39:31.553Z,2.77
2018-12-13T13:40:33.162Z,3.20
2018-12-13T13:41:37.578Z,2.80
2018-12-13T13:42:42.191Z,2.80
2018-12-13T13:43:46.623Z,2.80
2018-12-13T13:44:55.152Z,2.60
2018-12-13T13:45:59.614Z,2.50
2018-12-13T13:47:04.172Z,2.37
2018-12-13T13:48:08.634Z,2.90
2018-12-13T13:49:13.039Z,2.40
2018-12-13T13:50:17.499Z,2.60
2018-12-13T13:51:21.899Z,2.30
2018-12-13T13:52:26.329Z,2.60
2018-12-13T13:53:30.724Z,2.20
2018-12-13T13:54:35.319Z,2.53
2018-12-13T13:55:39.621Z,2.37
2018-12-13T13:56:44.131Z,2.20
2018-12-13T13:57:48.572Z,2.40
2018-12-13T13:58:52.959Z,2.30
2018-12-13T13:59:57.251Z,2.40
2018-12-13T14:01:01.698Z,2.03
2018-12-13T14:02:06.096Z,2.53
2018-12-13T14:03:10.527Z,2.20
2018-12-13T14:04:14.831Z,1.90
2018-12-13T14:05:19.256Z,2.40
2018-12-13T14:06:24.132Z,2.10
2018-12-13T14:07:28.527Z,2.30
2018-12-13T14:08:33.102Z,2.27
2018-12-13T14:09:38.067Z,2.10
2018-12-13T14:10:42.193Z,2.20
2018-12-13T14:11:48.366Z,2.10
2018-12-13T14:12:52.789Z,2.23
2018-12-13T14:13:57.097Z,1.93
2018-12-13T14:15:01.677Z,2.20
2018-12-13T14:16:06.220Z,2.20
2018-12-13T14:17:10.606Z,2.00
2018-12-13T14:18:15.057Z,2.40
2018-12-13T14:19:20.647Z,2.43
2018-12-13T14:20:24.082Z,2.20